Key Center, Washington
Current Conditions -  °F | °C
As of 9:53 PM on Monday 20 Oct 2014 (Local Time) from KTIW Reporting Station
Overcast Overcast  
Wind Chill: 55°   Ceiling: 6000
Heat Index: 55°   Visibility: 10mi
Dew Point: 51°   Wind: 9mph
Humidity: 86%   Direction: 180°S
Pressure: 29.8"   Gusts: NA
Location:  47.2986°N, 122.616°W
Report Text: KTIW 210453Z AUTO 18008KT 10SM SCT050 BKN060 OVC075 13/11 A2980 RMK AO2 RAE0356B12E30 SLP089 P0000 T01280106
Loading
Personal Weather Stations






























Interactive Weather Map
Tropical Storm Tracking
New forecast layout! Learn more

10-Day Weather Forecast

Advertisements
Track Severe Weather on mobile